sensor_id;sensor_type;location;lat;lon;timestamp;P1;durP1;ratioP1;P2;durP2;ratioP2
30036;SDS011;36325;51.512;-0.382;2023-04-24T00:00:05;55.63;;;25.38;;
30036;SDS011;36325;51.512;-0.382;2023-04-24T00:02:32;57.10;;;25.40;;
30036;SDS011;36325;51.512;-0.382;2023-04-24T00:05:01;52.92;;;23.30;;
30036;SDS011;36325;51.512;-0.382;2023-04-24T00:07:29;50.92;;;24.42;;
30036;SDS011;36325;51.512;-0.382;2023-04-24T00:09:56;50.30;;;23.25;;
30036;SDS011;36325;51.512;-0.382;2023-04-24T00:12:24;57.00;;;24.10;;
30036;SDS011;36325;51.512;-0.382;2023-04-24T00:14:52;54.17;;;24.27;;
30036;SDS011;36325;51.512;-0.382;2023-04-24T00:17:19;53.38;;;24.88;;
30036;SDS011;36325;51.512;-0.382;2023-04-24T00:19:47;55.10;;;24.40;;
30036;SDS011;36325;51.512;-0.382;2023-04-24T00:22:18;52.55;;;24.10;;
30036;SDS011;36325;51.512;-0.382;2023-04-24T00:24:47;53.50;;;23.88;;
30036;SDS011;36325;51.512;-0.382;2023-04-24T00:27:14;45.80;;;24.00;;
30036;SDS011;36325;51.512;-0.382;2023-04-24T00:29:41;53.30;;;24.17;;
30036;SDS011;36325;51.512;-0.382;2023-04-24T00:32:09;52.00;;;23.52;;
30036;SDS011;36325;51.512;-0.382;2023-04-24T00:34:37;52.03;;;24.30;;
30036;SDS011;36325;51.512;-0.382;2023-04-24T00:37:04;55.67;;;24.65;;
30036;SDS011;36325;51.512;-0.382;2023-04-24T00:39:32;52.28;;;24.85;;
30036;SDS011;36325;51.512;-0.382;2023-04-24T00:42:00;50.63;;;23.35;;
30036;SDS011;36325;51.512;-0.382;2023-04-24T00:44:28;53.70;;;23.63;;
30036;SDS011;36325;51.512;-0.382;2023-04-24T00:46:55;55.10;;;24.90;;
30036;SDS011;36325;51.512;-0.382;2023-04-24T00:49:24;50.13;;;24.35;;
30036;SDS011;36325;51.512;-0.382;2023-04-24T00:51:51;53.70;;;25.15;;
30036;SDS011;36325;51.512;-0.382;2023-04-24T00:54:20;49.88;;;24.20;;
30036;SDS011;36325;51.512;-0.382;2023-04-24T00:56:49;61.58;;;25.60;;
30036;SDS011;36325;51.512;-0.382;2023-04-24T00:59:17;49.40;;;22.27;;
30036;SDS011;36325;51.512;-0.382;2023-04-24T01:01:45;54.83;;;23.50;;
30036;SDS011;36325;51.512;-0.382;2023-04-24T01:04:13;49.40;;;23.85;;
30036;SDS011;36325;51.512;-0.382;2023-04-24T01:06:42;55.35;;;24.60;;
30036;SDS011;36325;51.512;-0.382;2023-04-24T01:09:11;52.92;;;24.30;;
30036;SDS011;36325;51.512;-0.382;2023-04-24T01:11:39;54.95;;;25.25;;
30036;SDS011;36325;51.512;-0.382;2023-04-24T01:14:10;53.97;;;25.77;;
30036;SDS011;36325;51.512;-0.382;2023-04-24T01:16:38;57.50;;;24.40;;
30036;SDS011;36325;51.512;-0.382;2023-04-24T01:19:06;54.35;;;23.63;;
30036;SDS011;36325;51.512;-0.382;2023-04-24T01:21:36;49.35;;;24.15;;
30036;SDS011;36325;51.512;-0.382;2023-04-24T01:24:04;58.55;;;24.60;;
30036;SDS011;36325;51.512;-0.382;2023-04-24T01:26:32;50.25;;;24.10;;
30036;SDS011;36325;51.512;-0.382;2023-04-24T01:29:00;51.58;;;25.25;;
30036;SDS011;36325;51.512;-0.382;2023-04-24T01:31:27;48.83;;;23.77;;
30036;SDS011;36325;51.512;-0.382;2023-04-24T01:33:57;53.20;;;24.77;;
30036;SDS011;36325;51.512;-0.382;2023-04-24T01:36:25;58.92;;;25.25;;
30036;SDS011;36325;51.512;-0.382;2023-04-24T01:38:53;53.00;;;25.67;;
30036;SDS011;36325;51.512;-0.382;2023-04-24T01:41:21;51.85;;;24.85;;
30036;SDS011;36325;51.512;-0.382;2023-04-24T01:43:50;62.20;;;25.50;;
30036;SDS011;36325;51.512;-0.382;2023-04-24T01:46:18;60.08;;;25.35;;
30036;SDS011;36325;51.512;-0.382;2023-04-24T01:48:46;61.00;;;27.20;;
30036;SDS011;36325;51.512;-0.382;2023-04-24T01:51:14;62.92;;;25.48;;
30036;SDS011;36325;51.512;-0.382;2023-04-24T01:53:41;61.15;;;27.77;;
30036;SDS011;36325;51.512;-0.382;2023-04-24T01:56:09;61.60;;;26.58;;
30036;SDS011;36325;51.512;-0.382;2023-04-24T01:58:36;60.45;;;26.40;;
30036;SDS011;36325;51.512;-0.382;2023-04-24T02:01:05;67.07;;;27.25;;
30036;SDS011;36325;51.512;-0.382;2023-04-24T02:03:33;63.60;;;26.88;;
30036;SDS011;36325;51.512;-0.382;2023-04-24T02:06:01;66.00;;;28.50;;
30036;SDS011;36325;51.512;-0.382;2023-04-24T02:08:30;68.75;;;28.73;;
30036;SDS011;36325;51.512;-0.382;2023-04-24T02:10:57;71.63;;;28.27;;
30036;SDS011;36325;51.512;-0.382;2023-04-24T02:13:26;68.35;;;28.98;;
30036;SDS011;36325;51.512;-0.382;2023-04-24T02:15:53;69.55;;;29.63;;
30036;SDS011;36325;51.512;-0.382;2023-04-24T02:18:22;71.75;;;30.15;;
30036;SDS011;36325;51.512;-0.382;2023-04-24T02:20:49;68.57;;;27.42;;
30036;SDS011;36325;51.512;-0.382;2023-04-24T02:23:17;60.03;;;25.98;;
30036;SDS011;36325;51.512;-0.382;2023-04-24T02:25:47;59.10;;;25.85;;
30036;SDS011;36325;51.512;-0.382;2023-04-24T02:28:25;74.70;;;27.90;;
30036;SDS011;36325;51.512;-0.382;2023-04-24T02:31:01;63.55;;;26.20;;
30036;SDS011;36325;51.512;-0.382;2023-04-24T02:33:30;59.80;;;26.20;;
30036;SDS011;36325;51.512;-0.382;2023-04-24T02:35:57;57.13;;;25.55;;
30036;SDS011;36325;51.512;-0.382;2023-04-24T02:38:25;52.33;;;26.58;;
30036;SDS011;36325;51.512;-0.382;2023-04-24T02:40:53;55.65;;;24.98;;
30036;SDS011;36325;51.512;-0.382;2023-04-24T02:43:20;54.17;;;24.50;;
30036;SDS011;36325;51.512;-0.382;2023-04-24T02:45:47;51.90;;;24.58;;
30036;SDS011;36325;51.512;-0.382;2023-04-24T02:48:15;53.47;;;24.77;;
30036;SDS011;36325;51.512;-0.382;2023-04-24T02:50:43;49.00;;;22.35;;
30036;SDS011;36325;51.512;-0.382;2023-04-24T02:53:11;45.55;;;21.73;;
30036;SDS011;36325;51.512;-0.382;2023-04-24T02:55:38;51.20;;;23.83;;
30036;SDS011;36325;51.512;-0.382;2023-04-24T02:58:06;52.05;;;21.98;;
30036;SDS011;36325;51.512;-0.382;2023-04-24T03:00:34;48.90;;;24.40;;
30036;SDS011;36325;51.512;-0.382;2023-04-24T03:03:01;48.13;;;24.00;;
30036;SDS011;36325;51.512;-0.382;2023-04-24T03:05:29;46.45;;;22.10;;
30036;SDS011;36325;51.512;-0.382;2023-04-24T03:07:57;48.33;;;23.83;;
30036;SDS011;36325;51.512;-0.382;2023-04-24T03:10:25;48.30;;;21.77;;
30036;SDS011;36325;51.512;-0.382;2023-04-24T03:12:53;51.95;;;23.42;;
30036;SDS011;36325;51.512;-0.382;2023-04-24T03:15:21;48.00;;;23.05;;
30036;SDS011;36325;51.512;-0.382;2023-04-24T03:17:48;44.92;;;21.60;;
30036;SDS011;36325;51.512;-0.382;2023-04-24T03:20:16;43.28;;;20.67;;
30036;SDS011;36325;51.512;-0.382;2023-04-24T03:22:44;43.50;;;18.85;;
30036;SDS011;36325;51.512;-0.382;2023-04-24T03:25:11;46.97;;;20.23;;
30036;SDS011;36325;51.512;-0.382;2023-04-24T03:27:39;39.85;;;19.90;;
30036;SDS011;36325;51.512;-0.382;2023-04-24T03:30:16;47.65;;;20.52;;
30036;SDS011;36325;51.512;-0.382;2023-04-24T03:32:50;41.58;;;19.45;;
30036;SDS011;36325;51.512;-0.382;2023-04-24T03:35:22;37.85;;;18.05;;
30036;SDS011;36325;51.512;-0.382;2023-04-24T03:37:51;39.85;;;19.45;;
30036;SDS011;36325;51.512;-0.382;2023-04-24T03:40:36;43.38;;;19.80;;
30036;SDS011;36325;51.512;-0.382;2023-04-24T03:43:13;41.05;;;19.48;;
30036;SDS011;36325;51.512;-0.382;2023-04-24T03:45:41;39.63;;;19.17;;
30036;SDS011;36325;51.512;-0.382;2023-04-24T03:48:09;37.25;;;18.42;;
30036;SDS011;36325;51.512;-0.382;2023-04-24T03:50:36;39.42;;;18.50;;
30036;SDS011;36325;51.512;-0.382;2023-04-24T03:53:05;40.92;;;19.55;;
30036;SDS011;36325;51.512;-0.382;2023-04-24T03:55:38;39.47;;;19.73;;
30036;SDS011;36325;51.512;-0.382;2023-04-24T03:58:05;36.38;;;19.00;;
30036;SDS011;36325;51.512;-0.382;2023-04-24T04:00:33;41.63;;;19.42;;
30036;SDS011;36325;51.512;-0.382;2023-04-24T04:03:21;39.75;;;17.75;;
30036;SDS011;36325;51.512;-0.382;2023-04-24T04:05:49;39.42;;;19.33;;
30036;SDS011;36325;51.512;-0.382;2023-04-24T04:08:16;40.65;;;19.50;;
30036;SDS011;36325;51.512;-0.382;2023-04-24T04:10:43;47.78;;;18.70;;
30036;SDS011;36325;51.512;-0.382;2023-04-24T04:13:13;43.95;;;21.35;;
30036;SDS011;36325;51.512;-0.382;2023-04-24T04:15:41;38.88;;;19.30;;
30036;SDS011;36325;51.512;-0.382;2023-04-24T04:18:09;41.40;;;18.70;;
30036;SDS011;36325;51.512;-0.382;2023-04-24T04:20:36;45.45;;;19.38;;
30036;SDS011;36325;51.512;-0.382;2023-04-24T04:23:03;39.30;;;19.27;;
30036;SDS011;36325;51.512;-0.382;2023-04-24T04:25:43;35.03;;;17.95;;
30036;SDS011;36325;51.512;-0.382;2023-04-24T04:28:11;40.38;;;19.70;;
30036;SDS011;36325;51.512;-0.382;2023-04-24T04:30:38;36.40;;;17.60;;
30036;SDS011;36325;51.512;-0.382;2023-04-24T04:33:06;40.40;;;18.08;;
30036;SDS011;36325;51.512;-0.382;2023-04-24T04:35:34;44.08;;;19.63;;
30036;SDS011;36325;51.512;-0.382;2023-04-24T04:38:04;38.78;;;18.20;;
30036;SDS011;36325;51.512;-0.382;2023-04-24T04:40:49;36.50;;;18.33;;
30036;SDS011;36325;51.512;-0.382;2023-04-24T04:43:19;38.33;;;19.27;;
30036;SDS011;36325;51.512;-0.382;2023-04-24T04:45:50;38.88;;;18.23;;
30036;SDS011;36325;51.512;-0.382;2023-04-24T04:48:42;39.85;;;19.35;;
30036;SDS011;36325;51.512;-0.382;2023-04-24T04:51:09;41.95;;;20.63;;
30036;SDS011;36325;51.512;-0.382;2023-04-24T04:53:37;34.50;;;17.45;;
30036;SDS011;36325;51.512;-0.382;2023-04-24T04:56:05;42.72;;;20.40;;
30036;SDS011;36325;51.512;-0.382;2023-04-24T04:58:36;38.97;;;18.92;;
30036;SDS011;36325;51.512;-0.382;2023-04-24T05:01:08;38.88;;;19.10;;
30036;SDS011;36325;51.512;-0.382;2023-04-24T05:03:39;42.83;;;20.15;;
30036;SDS011;36325;51.512;-0.382;2023-04-24T05:06:10;36.20;;;18.42;;
30036;SDS011;36325;51.512;-0.382;2023-04-24T05:08:38;41.95;;;19.60;;
30036;SDS011;36325;51.512;-0.382;2023-04-24T05:11:11;38.50;;;20.30;;
30036;SDS011;36325;51.512;-0.382;2023-04-24T05:13:40;39.88;;;19.52;;
30036;SDS011;36325;51.512;-0.382;2023-04-24T05:16:12;38.72;;;18.70;;
30036;SDS011;36325;51.512;-0.382;2023-04-24T05:18:41;38.30;;;19.00;;
30036;SDS011;36325;51.512;-0.382;2023-04-24T05:21:12;38.88;;;20.17;;
30036;SDS011;36325;51.512;-0.382;2023-04-24T05:23:42;38.42;;;18.40;;
30036;SDS011;36325;51.512;-0.382;2023-04-24T05:26:13;43.50;;;21.45;;
30036;SDS011;36325;51.512;-0.382;2023-04-24T05:28:43;40.08;;;20.45;;
30036;SDS011;36325;51.512;-0.382;2023-04-24T05:31:11;50.08;;;21.05;;
30036;SDS011;36325;51.512;-0.382;2023-04-24T05:33:39;44.97;;;20.85;;
30036;SDS011;36325;51.512;-0.382;2023-04-24T05:36:07;41.63;;;19.98;;
30036;SDS011;36325;51.512;-0.382;2023-04-24T05:38:36;34.22;;;15.90;;
30036;SDS011;36325;51.512;-0.382;2023-04-24T05:41:03;32.75;;;14.82;;
30036;SDS011;36325;51.512;-0.382;2023-04-24T05:43:31;43.35;;;16.80;;
30036;SDS011;36325;51.512;-0.382;2023-04-24T05:45:58;35.35;;;14.80;;
30036;SDS011;36325;51.512;-0.382;2023-04-24T05:48:26;37.72;;;15.45;;
30036;SDS011;36325;51.512;-0.382;2023-04-24T05:50:54;31.42;;;15.65;;
30036;SDS011;36325;51.512;-0.382;2023-04-24T05:53:22;39.20;;;17.05;;
30036;SDS011;36325;51.512;-0.382;2023-04-24T05:55:49;39.53;;;15.80;;
30036;SDS011;36325;51.512;-0.382;2023-04-24T05:58:17;28.52;;;13.98;;
30036;SDS011;36325;51.512;-0.382;2023-04-24T06:00:47;32.40;;;14.23;;
30036;SDS011;36325;51.512;-0.382;2023-04-24T06:03:14;31.58;;;15.82;;
30036;SDS011;36325;51.512;-0.382;2023-04-24T06:05:42;24.88;;;13.18;;
30036;SDS011;36325;51.512;-0.382;2023-04-24T06:08:10;28.85;;;13.05;;
30036;SDS011;36325;51.512;-0.382;2023-04-24T06:10:39;30.42;;;12.02;;
30036;SDS011;36325;51.512;-0.382;2023-04-24T06:13:08;26.35;;;10.77;;
30036;SDS011;36325;51.512;-0.382;2023-04-24T06:18:15;26.80;;;10.60;;
30036;SDS011;36325;51.512;-0.382;2023-04-24T06:20:43;26.58;;;9.52;;
30036;SDS011;36325;51.512;-0.382;2023-04-24T06:23:10;23.15;;;9.02;;
30036;SDS011;36325;51.512;-0.382;2023-04-24T06:25:37;28.25;;;8.27;;
30036;SDS011;36325;51.512;-0.382;2023-04-24T06:28:05;20.45;;;7.97;;
30036;SDS011;36325;51.512;-0.382;2023-04-24T06:30:32;19.10;;;6.65;;
30036;SDS011;36325;51.512;-0.382;2023-04-24T06:32:59;20.52;;;6.03;;
30036;SDS011;36325;51.512;-0.382;2023-04-24T06:35:38;15.18;;;6.72;;
30036;SDS011;36325;51.512;-0.382;2023-04-24T06:38:05;21.05;;;6.78;;
30036;SDS011;36325;51.512;-0.382;2023-04-24T06:40:33;17.10;;;5.93;;
30036;SDS011;36325;51.512;-0.382;2023-04-24T06:43:00;14.20;;;4.75;;
30036;SDS011;36325;51.512;-0.382;2023-04-24T06:45:29;12.75;;;4.07;;
30036;SDS011;36325;51.512;-0.382;2023-04-24T06:47:57;15.60;;;4.53;;
30036;SDS011;36325;51.512;-0.382;2023-04-24T06:50:24;10.20;;;3.20;;
30036;SDS011;36325;51.512;-0.382;2023-04-24T06:52:51;12.07;;;4.18;;
30036;SDS011;36325;51.512;-0.382;2023-04-24T06:55:19;7.88;;;3.63;;
30036;SDS011;36325;51.512;-0.382;2023-04-24T06:57:46;8.73;;;3.60;;
30036;SDS011;36325;51.512;-0.382;2023-04-24T07:00:13;13.05;;;3.35;;
30036;SDS011;36325;51.512;-0.382;2023-04-24T07:02:41;17.67;;;4.03;;
30036;SDS011;36325;51.512;-0.382;2023-04-24T07:05:08;12.80;;;3.40;;
30036;SDS011;36325;51.512;-0.382;2023-04-24T07:07:37;16.85;;;4.47;;
30036;SDS011;36325;51.512;-0.382;2023-04-24T07:10:06;6.93;;;2.97;;
30036;SDS011;36325;51.512;-0.382;2023-04-24T07:12:34;10.95;;;2.85;;
30036;SDS011;36325;51.512;-0.382;2023-04-24T07:15:02;12.52;;;3.10;;
30036;SDS011;36325;51.512;-0.382;2023-04-24T07:17:29;12.32;;;3.10;;
30036;SDS011;36325;51.512;-0.382;2023-04-24T07:19:57;8.70;;;3.15;;
30036;SDS011;36325;51.512;-0.382;2023-04-24T07:22:26;7.50;;;2.30;;
30036;SDS011;36325;51.512;-0.382;2023-04-24T07:24:54;12.80;;;3.13;;
30036;SDS011;36325;51.512;-0.382;2023-04-24T07:27:22;13.45;;;3.25;;
30036;SDS011;36325;51.512;-0.382;2023-04-24T07:29:49;8.75;;;2.90;;
30036;SDS011;36325;51.512;-0.382;2023-04-24T07:32:16;12.73;;;3.83;;
30036;SDS011;36325;51.512;-0.382;2023-04-24T07:34:43;12.05;;;2.80;;
30036;SDS011;36325;51.512;-0.382;2023-04-24T07:37:11;11.48;;;2.78;;
30036;SDS011;36325;51.512;-0.382;2023-04-24T07:39:38;14.27;;;3.60;;
30036;SDS011;36325;51.512;-0.382;2023-04-24T07:42:05;6.25;;;2.40;;
30036;SDS011;36325;51.512;-0.382;2023-04-24T07:44:33;12.88;;;3.80;;
30036;SDS011;36325;51.512;-0.382;2023-04-24T07:47:00;6.82;;;3.35;;
30036;SDS011;36325;51.512;-0.382;2023-04-24T07:49:27;10.32;;;3.90;;
30036;SDS011;36325;51.512;-0.382;2023-04-24T07:51:57;5.28;;;2.30;;
30036;SDS011;36325;51.512;-0.382;2023-04-24T07:54:27;10.63;;;3.20;;
30036;SDS011;36325;51.512;-0.382;2023-04-24T07:56:56;13.23;;;3.05;;
30036;SDS011;36325;51.512;-0.382;2023-04-24T07:59:23;11.43;;;3.15;;
30036;SDS011;36325;51.512;-0.382;2023-04-24T08:01:50;11.77;;;3.00;;
30036;SDS011;36325;51.512;-0.382;2023-04-24T08:04:18;9.32;;;3.53;;
30036;SDS011;36325;51.512;-0.382;2023-04-24T08:06:47;11.52;;;2.55;;
30036;SDS011;36325;51.512;-0.382;2023-04-24T08:09:14;11.30;;;3.67;;
30036;SDS011;36325;51.512;-0.382;2023-04-24T08:11:41;4.97;;;2.80;;
30036;SDS011;36325;51.512;-0.382;2023-04-24T08:14:08;10.23;;;3.30;;
30036;SDS011;36325;51.512;-0.382;2023-04-24T08:16:36;11.32;;;3.45;;
30036;SDS011;36325;51.512;-0.382;2023-04-24T08:19:03;11.10;;;3.05;;
30036;SDS011;36325;51.512;-0.382;2023-04-24T08:21:31;10.90;;;3.10;;
30036;SDS011;36325;51.512;-0.382;2023-04-24T08:23:58;7.55;;;3.15;;
30036;SDS011;36325;51.512;-0.382;2023-04-24T08:26:25;4.93;;;2.53;;
30036;SDS011;36325;51.512;-0.382;2023-04-24T08:28:53;9.75;;;3.67;;
30036;SDS011;36325;51.512;-0.382;2023-04-24T08:31:20;10.38;;;2.83;;
30036;SDS011;36325;51.512;-0.382;2023-04-24T08:33:49;11.93;;;3.17;;
30036;SDS011;36325;51.512;-0.382;2023-04-24T08:36:16;10.77;;;3.25;;
30036;SDS011;36325;51.512;-0.382;2023-04-24T08:38:43;8.32;;;3.20;;
30036;SDS011;36325;51.512;-0.382;2023-04-24T08:41:12;11.20;;;4.47;;
30036;SDS011;36325;51.512;-0.382;2023-04-24T08:43:42;28.00;;;13.25;;
30036;SDS011;36325;51.512;-0.382;2023-04-24T08:46:13;12.65;;;6.57;;
30036;SDS011;36325;51.512;-0.382;2023-04-24T08:48:41;13.75;;;4.80;;
30036;SDS011;36325;51.512;-0.382;2023-04-24T08:51:09;6.28;;;3.15;;
30036;SDS011;36325;51.512;-0.382;2023-04-24T08:53:37;13.65;;;3.65;;
30036;SDS011;36325;51.512;-0.382;2023-04-24T08:56:05;10.15;;;3.17;;
30036;SDS011;36325;51.512;-0.382;2023-04-24T08:58:33;6.25;;;2.78;;
30036;SDS011;36325;51.512;-0.382;2023-04-24T09:01:02;10.65;;;3.13;;
30036;SDS011;36325;51.512;-0.382;2023-04-24T09:03:29;11.73;;;3.28;;
30036;SDS011;36325;51.512;-0.382;2023-04-24T09:05:58;8.85;;;2.80;;
30036;SDS011;36325;51.512;-0.382;2023-04-24T09:08:26;10.25;;;3.30;;
30036;SDS011;36325;51.512;-0.382;2023-04-24T09:10:56;10.02;;;3.78;;
30036;SDS011;36325;51.512;-0.382;2023-04-24T09:13:24;8.63;;;3.20;;
30036;SDS011;36325;51.512;-0.382;2023-04-24T09:15:52;11.85;;;3.35;;
30036;SDS011;36325;51.512;-0.382;2023-04-24T09:18:20;11.90;;;3.17;;
30036;SDS011;36325;51.512;-0.382;2023-04-24T09:20:57;7.15;;;2.80;;
30036;SDS011;36325;51.512;-0.382;2023-04-24T09:23:33;7.82;;;3.83;;
30036;SDS011;36325;51.512;-0.382;2023-04-24T09:26:02;12.02;;;3.55;;
30036;SDS011;36325;51.512;-0.382;2023-04-24T09:31:22;7.07;;;3.00;;
30036;SDS011;36325;51.512;-0.382;2023-04-24T09:39:01;10.48;;;3.30;;
30036;SDS011;36325;51.512;-0.382;2023-04-24T09:41:29;12.27;;;4.28;;
30036;SDS011;36325;51.512;-0.382;2023-04-24T09:44:10;10.38;;;3.80;;
30036;SDS011;36325;51.512;-0.382;2023-04-24T09:46:40;14.10;;;4.00;;
30036;SDS011;36325;51.512;-0.382;2023-04-24T09:49:10;26.63;;;4.32;;
30036;SDS011;36325;51.512;-0.382;2023-04-24T09:51:44;8.50;;;3.80;;
30036;SDS011;36325;51.512;-0.382;2023-04-24T09:54:15;15.73;;;3.47;;
30036;SDS011;36325;51.512;-0.382;2023-04-24T09:56:50;59.38;;;8.50;;
30036;SDS011;36325;51.512;-0.382;2023-04-24T09:59:18;11.07;;;4.57;;
30036;SDS011;36325;51.512;-0.382;2023-04-24T10:01:46;9.20;;;3.53;;
30036;SDS011;36325;51.512;-0.382;2023-04-24T10:04:19;16.02;;;3.65;;
30036;SDS011;36325;51.512;-0.382;2023-04-24T10:06:48;9.45;;;4.20;;
30036;SDS011;36325;51.512;-0.382;2023-04-24T10:09:18;11.13;;;4.55;;
30036;SDS011;36325;51.512;-0.382;2023-04-24T10:11:47;10.25;;;3.30;;
30036;SDS011;36325;51.512;-0.382;2023-04-24T10:14:18;10.10;;;3.22;;
30036;SDS011;36325;51.512;-0.382;2023-04-24T10:16:47;11.10;;;3.20;;
30036;SDS011;36325;51.512;-0.382;2023-04-24T10:19:16;6.25;;;3.10;;
30036;SDS011;36325;51.512;-0.382;2023-04-24T10:21:46;7.90;;;3.10;;
30036;SDS011;36325;51.512;-0.382;2023-04-24T10:24:16;13.13;;;3.50;;
30036;SDS011;36325;51.512;-0.382;2023-04-24T10:26:45;7.85;;;3.70;;
30036;SDS011;36325;51.512;-0.382;2023-04-24T10:29:16;9.88;;;3.97;;
30036;SDS011;36325;51.512;-0.382;2023-04-24T10:31:44;12.40;;;3.92;;
30036;SDS011;36325;51.512;-0.382;2023-04-24T10:34:14;10.65;;;4.68;;
30036;SDS011;36325;51.512;-0.382;2023-04-24T10:39:17;11.23;;;3.53;;
30036;SDS011;36325;51.512;-0.382;2023-04-24T10:41:53;10.98;;;3.45;;
30036;SDS011;36325;51.512;-0.382;2023-04-24T10:44:23;10.02;;;2.88;;
30036;SDS011;36325;51.512;-0.382;2023-04-24T10:46:55;12.40;;;3.63;;
30036;SDS011;36325;51.512;-0.382;2023-04-24T10:49:29;11.13;;;3.03;;
30036;SDS011;36325;51.512;-0.382;2023-04-24T10:52:04;12.05;;;3.28;;
30036;SDS011;36325;51.512;-0.382;2023-04-24T10:54:36;12.63;;;3.88;;
30036;SDS011;36325;51.512;-0.382;2023-04-24T10:59:49;13.02;;;3.90;;
30036;SDS011;36325;51.512;-0.382;2023-04-24T11:02:36;8.15;;;3.53;;
30036;SDS011;36325;51.512;-0.382;2023-04-24T11:05:05;9.05;;;2.97;;
30036;SDS011;36325;51.512;-0.382;2023-04-24T11:08:21;7.65;;;3.20;;
30036;SDS011;36325;51.512;-0.382;2023-04-24T11:10:43;4.82;;;2.92;;
30036;SDS011;36325;51.512;-0.382;2023-04-24T11:13:17;16.08;;;3.85;;
30036;SDS011;36325;51.512;-0.382;2023-04-24T11:18:41;10.20;;;3.38;;
30036;SDS011;36325;51.512;-0.382;2023-04-24T11:21:12;15.37;;;3.43;;
30036;SDS011;36325;51.512;-0.382;2023-04-24T11:23:44;19.00;;;3.75;;
30036;SDS011;36325;51.512;-0.382;2023-04-24T11:26:13;10.38;;;3.58;;
30036;SDS011;36325;51.512;-0.382;2023-04-24T11:29:07;9.55;;;3.88;;
30036;SDS011;36325;51.512;-0.382;2023-04-24T11:31:35;12.55;;;3.85;;
30036;SDS011;36325;51.512;-0.382;2023-04-24T11:34:13;9.52;;;3.92;;
30036;SDS011;36325;51.512;-0.382;2023-04-24T11:36:44;12.15;;;4.05;;
30036;SDS011;36325;51.512;-0.382;2023-04-24T11:39:12;9.70;;;4.15;;
30036;SDS011;36325;51.512;-0.382;2023-04-24T11:41:40;11.63;;;4.47;;
30036;SDS011;36325;51.512;-0.382;2023-04-24T11:44:09;9.52;;;4.50;;
30036;SDS011;36325;51.512;-0.382;2023-04-24T11:46:37;9.55;;;3.80;;
30036;SDS011;36325;51.512;-0.382;2023-04-24T11:49:06;7.45;;;2.92;;
30036;SDS011;36325;51.512;-0.382;2023-04-24T11:51:34;7.22;;;3.55;;
30036;SDS011;36325;51.512;-0.382;2023-04-24T11:54:13;10.30;;;3.33;;
30036;SDS011;36325;51.512;-0.382;2023-04-24T11:56:44;14.90;;;4.05;;
30036;SDS011;36325;51.512;-0.382;2023-04-24T11:59:13;8.73;;;3.10;;
30036;SDS011;36325;51.512;-0.382;2023-04-24T12:01:47;12.90;;;4.80;;
30036;SDS011;36325;51.512;-0.382;2023-04-24T12:04:16;11.73;;;4.32;;
30036;SDS011;36325;51.512;-0.382;2023-04-24T12:07:00;12.80;;;3.80;;
30036;SDS011;36325;51.512;-0.382;2023-04-24T12:09:42;8.45;;;3.75;;
30036;SDS011;36325;51.512;-0.382;2023-04-24T12:12:15;7.82;;;4.22;;
30036;SDS011;36325;51.512;-0.382;2023-04-24T12:14:44;9.82;;;4.50;;
30036;SDS011;36325;51.512;-0.382;2023-04-24T12:17:16;13.65;;;4.35;;
30036;SDS011;36325;51.512;-0.382;2023-04-24T12:19:47;9.05;;;4.75;;
30036;SDS011;36325;51.512;-0.382;2023-04-24T12:22:14;8.52;;;4.82;;
30036;SDS011;36325;51.512;-0.382;2023-04-24T12:27:32;6.80;;;3.85;;
30036;SDS011;36325;51.512;-0.382;2023-04-24T12:30:04;9.98;;;4.60;;
30036;SDS011;36325;51.512;-0.382;2023-04-24T12:32:32;8.82;;;4.88;;
30036;SDS011;36325;51.512;-0.382;2023-04-24T12:34:59;8.35;;;4.25;;
30036;SDS011;36325;51.512;-0.382;2023-04-24T12:37:32;7.45;;;3.72;;
30036;SDS011;36325;51.512;-0.382;2023-04-24T12:42:34;7.13;;;3.30;;
30036;SDS011;36325;51.512;-0.382;2023-04-24T12:45:03;8.00;;;3.58;;
30036;SDS011;36325;51.512;-0.382;2023-04-24T12:47:32;5.30;;;3.28;;
30036;SDS011;36325;51.512;-0.382;2023-04-24T12:50:00;6.78;;;3.50;;
30036;SDS011;36325;51.512;-0.382;2023-04-24T12:52:29;4.90;;;3.30;;
30036;SDS011;36325;51.512;-0.382;2023-04-24T12:54:58;10.80;;;3.53;;
30036;SDS011;36325;51.512;-0.382;2023-04-24T12:57:27;6.30;;;3.80;;
30036;SDS011;36325;51.512;-0.382;2023-04-24T12:59:55;7.35;;;4.18;;
30036;SDS011;36325;51.512;-0.382;2023-04-24T13:02:25;6.18;;;3.25;;
30036;SDS011;36325;51.512;-0.382;2023-04-24T13:04:58;7.13;;;3.50;;
30036;SDS011;36325;51.512;-0.382;2023-04-24T13:07:26;6.70;;;3.55;;
30036;SDS011;36325;51.512;-0.382;2023-04-24T13:09:54;5.97;;;3.40;;
30036;SDS011;36325;51.512;-0.382;2023-04-24T13:12:22;7.43;;;3.25;;
30036;SDS011;36325;51.512;-0.382;2023-04-24T13:14:50;7.25;;;3.45;;
30036;SDS011;36325;51.512;-0.382;2023-04-24T13:17:17;9.63;;;4.43;;
30036;SDS011;36325;51.512;-0.382;2023-04-24T13:19:44;5.25;;;3.33;;
30036;SDS011;36325;51.512;-0.382;2023-04-24T13:22:12;5.43;;;3.35;;
30036;SDS011;36325;51.512;-0.382;2023-04-24T13:24:39;6.00;;;4.05;;
30036;SDS011;36325;51.512;-0.382;2023-04-24T13:27:07;8.40;;;4.57;;
30036;SDS011;36325;51.512;-0.382;2023-04-24T13:29:35;6.95;;;3.28;;
30036;SDS011;36325;51.512;-0.382;2023-04-24T13:32:03;5.30;;;3.15;;
30036;SDS011;36325;51.512;-0.382;2023-04-24T13:34:32;7.28;;;3.28;;
30036;SDS011;36325;51.512;-0.382;2023-04-24T13:37:07;9.90;;;4.45;;
30036;SDS011;36325;51.512;-0.382;2023-04-24T13:39:38;7.57;;;3.80;;
30036;SDS011;36325;51.512;-0.382;2023-04-24T13:42:05;8.40;;;3.92;;
30036;SDS011;36325;51.512;-0.382;2023-04-24T13:44:32;6.28;;;3.65;;
30036;SDS011;36325;51.512;-0.382;2023-04-24T13:47:02;5.45;;;3.13;;
30036;SDS011;36325;51.512;-0.382;2023-04-24T13:49:30;5.30;;;3.33;;
30036;SDS011;36325;51.512;-0.382;2023-04-24T13:51:57;6.40;;;3.80;;
30036;SDS011;36325;51.512;-0.382;2023-04-24T13:54:24;8.93;;;3.75;;
30036;SDS011;36325;51.512;-0.382;2023-04-24T13:56:52;9.57;;;3.03;;
30036;SDS011;36325;51.512;-0.382;2023-04-24T13:59:21;7.18;;;3.17;;
30036;SDS011;36325;51.512;-0.382;2023-04-24T14:01:48;5.93;;;3.70;;
30036;SDS011;36325;51.512;-0.382;2023-04-24T14:04:15;5.97;;;3.10;;
30036;SDS011;36325;51.512;-0.382;2023-04-24T14:06:43;7.00;;;3.33;;
30036;SDS011;36325;51.512;-0.382;2023-04-24T14:09:13;7.20;;;3.17;;
30036;SDS011;36325;51.512;-0.382;2023-04-24T14:11:40;8.15;;;3.22;;
30036;SDS011;36325;51.512;-0.382;2023-04-24T14:14:07;7.35;;;3.28;;
30036;SDS011;36325;51.512;-0.382;2023-04-24T14:16:35;5.32;;;3.20;;
30036;SDS011;36325;51.512;-0.382;2023-04-24T14:19:02;6.57;;;3.22;;
30036;SDS011;36325;51.512;-0.382;2023-04-24T14:21:32;6.85;;;2.90;;
30036;SDS011;36325;51.512;-0.382;2023-04-24T14:23:59;6.75;;;2.80;;
30036;SDS011;36325;51.512;-0.382;2023-04-24T14:26:27;7.15;;;2.90;;
30036;SDS011;36325;51.512;-0.382;2023-04-24T14:28:54;5.10;;;2.75;;
30036;SDS011;36325;51.512;-0.382;2023-04-24T14:31:32;4.30;;;2.53;;
30036;SDS011;36325;51.512;-0.382;2023-04-24T14:34:00;10.13;;;3.08;;
30036;SDS011;36325;51.512;-0.382;2023-04-24T14:36:27;13.02;;;3.13;;
30036;SDS011;36325;51.512;-0.382;2023-04-24T14:38:54;8.35;;;3.10;;
30036;SDS011;36325;51.512;-0.382;2023-04-24T14:41:21;6.45;;;3.63;;
30036;SDS011;36325;51.512;-0.382;2023-04-24T14:43:48;5.38;;;2.78;;
30036;SDS011;36325;51.512;-0.382;2023-04-24T14:46:15;9.02;;;3.28;;
30036;SDS011;36325;51.512;-0.382;2023-04-24T14:48:43;5.45;;;2.80;;
30036;SDS011;36325;51.512;-0.382;2023-04-24T14:51:10;4.63;;;3.00;;
30036;SDS011;36325;51.512;-0.382;2023-04-24T14:53:38;9.23;;;3.17;;